sensor_id;sensor_type;location;lat;lon;timestamp;P1;durP1;ratioP1;P2;durP2;ratioP2
61036;SDS011;57313;47.040;15.498;2022-07-01T00:00:13;20.13;;;13.75;;
61036;SDS011;57313;47.040;15.498;2022-07-01T00:02:41;21.02;;;14.13;;
61036;SDS011;57313;47.040;15.498;2022-07-01T00:05:08;23.17;;;14.88;;
61036;SDS011;57313;47.040;15.498;2022-07-01T00:07:36;20.88;;;13.85;;
61036;SDS011;57313;47.040;15.498;2022-07-01T00:10:04;23.70;;;14.43;;
61036;SDS011;57313;47.040;15.498;2022-07-01T00:12:32;25.55;;;14.93;;
61036;SDS011;57313;47.040;15.498;2022-07-01T00:14:59;20.40;;;14.45;;
61036;SDS011;57313;47.040;15.498;2022-07-01T00:17:28;24.02;;;13.90;;
61036;SDS011;57313;47.040;15.498;2022-07-01T00:19:56;24.05;;;14.75;;
61036;SDS011;57313;47.040;15.498;2022-07-01T00:22:24;20.05;;;14.63;;
61036;SDS011;57313;47.040;15.498;2022-07-01T00:24:51;21.33;;;14.63;;
61036;SDS011;57313;47.040;15.498;2022-07-01T00:27:18;21.95;;;14.95;;
61036;SDS011;57313;47.040;15.498;2022-07-01T00:29:46;21.73;;;13.73;;
61036;SDS011;57313;47.040;15.498;2022-07-01T00:32:13;23.38;;;14.55;;
61036;SDS011;57313;47.040;15.498;2022-07-01T00:34:43;22.13;;;14.05;;
61036;SDS011;57313;47.040;15.498;2022-07-01T00:37:10;19.25;;;13.85;;
61036;SDS011;57313;47.040;15.498;2022-07-01T00:39:37;20.52;;;13.15;;
61036;SDS011;57313;47.040;15.498;2022-07-01T00:42:05;18.83;;;13.57;;
61036;SDS011;57313;47.040;15.498;2022-07-01T00:44:33;21.52;;;14.07;;
61036;SDS011;57313;47.040;15.498;2022-07-01T00:47:02;19.30;;;12.40;;
61036;SDS011;57313;47.040;15.498;2022-07-01T00:49:34;22.88;;;13.45;;
61036;SDS011;57313;47.040;15.498;2022-07-01T00:52:04;23.35;;;13.00;;
61036;SDS011;57313;47.040;15.498;2022-07-01T00:54:34;22.30;;;13.57;;
61036;SDS011;57313;47.040;15.498;2022-07-01T00:57:05;19.50;;;13.05;;
61036;SDS011;57313;47.040;15.498;2022-07-01T00:59:34;20.65;;;13.65;;
61036;SDS011;57313;47.040;15.498;2022-07-01T01:02:03;22.80;;;13.30;;
61036;SDS011;57313;47.040;15.498;2022-07-01T01:04:31;20.48;;;13.95;;
61036;SDS011;57313;47.040;15.498;2022-07-01T01:07:00;23.95;;;13.85;;
61036;SDS011;57313;47.040;15.498;2022-07-01T01:09:29;21.92;;;14.43;;
61036;SDS011;57313;47.040;15.498;2022-07-01T01:11:57;17.45;;;12.75;;
61036;SDS011;57313;47.040;15.498;2022-07-01T01:14:25;19.63;;;13.38;;
61036;SDS011;57313;47.040;15.498;2022-07-01T01:16:52;22.02;;;13.65;;
61036;SDS011;57313;47.040;15.498;2022-07-01T01:19:20;23.70;;;13.77;;
61036;SDS011;57313;47.040;15.498;2022-07-01T01:21:49;21.08;;;14.25;;
61036;SDS011;57313;47.040;15.498;2022-07-01T01:24:16;20.35;;;14.52;;
61036;SDS011;57313;47.040;15.498;2022-07-01T01:26:43;23.02;;;15.10;;
61036;SDS011;57313;47.040;15.498;2022-07-01T01:29:11;24.98;;;14.43;;
61036;SDS011;57313;47.040;15.498;2022-07-01T01:31:39;21.30;;;14.52;;
61036;SDS011;57313;47.040;15.498;2022-07-01T01:34:07;19.42;;;14.35;;
61036;SDS011;57313;47.040;15.498;2022-07-01T01:36:35;21.58;;;14.98;;
61036;SDS011;57313;47.040;15.498;2022-07-01T01:39:04;22.15;;;14.30;;
61036;SDS011;57313;47.040;15.498;2022-07-01T01:41:31;21.13;;;14.20;;
61036;SDS011;57313;47.040;15.498;2022-07-01T01:43:58;22.67;;;13.60;;
61036;SDS011;57313;47.040;15.498;2022-07-01T01:46:26;20.38;;;13.88;;
61036;SDS011;57313;47.040;15.498;2022-07-01T01:48:54;22.45;;;13.15;;
61036;SDS011;57313;47.040;15.498;2022-07-01T01:51:21;19.95;;;14.18;;
61036;SDS011;57313;47.040;15.498;2022-07-01T01:53:49;20.38;;;14.35;;
61036;SDS011;57313;47.040;15.498;2022-07-01T01:56:18;24.63;;;15.05;;
61036;SDS011;57313;47.040;15.498;2022-07-01T01:58:45;25.25;;;15.27;;
61036;SDS011;57313;47.040;15.498;2022-07-01T02:01:13;22.27;;;15.70;;
61036;SDS011;57313;47.040;15.498;2022-07-01T02:03:41;21.60;;;14.80;;
61036;SDS011;57313;47.040;15.498;2022-07-01T02:06:09;21.27;;;14.32;;
61036;SDS011;57313;47.040;15.498;2022-07-01T02:08:37;26.80;;;14.73;;
61036;SDS011;57313;47.040;15.498;2022-07-01T02:11:06;21.58;;;14.77;;
61036;SDS011;57313;47.040;15.498;2022-07-01T02:13:37;20.63;;;14.35;;
61036;SDS011;57313;47.040;15.498;2022-07-01T02:16:04;20.55;;;14.30;;
61036;SDS011;57313;47.040;15.498;2022-07-01T02:18:32;20.33;;;13.57;;
61036;SDS011;57313;47.040;15.498;2022-07-01T02:20:59;22.33;;;14.65;;
61036;SDS011;57313;47.040;15.498;2022-07-01T02:23:29;19.77;;;13.82;;
61036;SDS011;57313;47.040;15.498;2022-07-01T02:25:57;22.77;;;13.98;;
61036;SDS011;57313;47.040;15.498;2022-07-01T02:28:24;22.23;;;15.30;;
61036;SDS011;57313;47.040;15.498;2022-07-01T02:30:53;22.08;;;15.73;;
61036;SDS011;57313;47.040;15.498;2022-07-01T02:33:21;22.70;;;15.88;;
61036;SDS011;57313;47.040;15.498;2022-07-01T02:35:48;22.88;;;16.17;;
61036;SDS011;57313;47.040;15.498;2022-07-01T02:38:16;22.67;;;15.48;;
61036;SDS011;57313;47.040;15.498;2022-07-01T02:40:43;22.58;;;14.80;;
61036;SDS011;57313;47.040;15.498;2022-07-01T02:43:11;25.88;;;15.60;;
61036;SDS011;57313;47.040;15.498;2022-07-01T02:45:38;22.13;;;14.98;;
61036;SDS011;57313;47.040;15.498;2022-07-01T02:48:08;21.58;;;14.07;;
61036;SDS011;57313;47.040;15.498;2022-07-01T02:50:35;22.98;;;14.48;;
61036;SDS011;57313;47.040;15.498;2022-07-01T02:53:03;22.25;;;15.65;;
61036;SDS011;57313;47.040;15.498;2022-07-01T02:55:30;23.20;;;14.57;;
61036;SDS011;57313;47.040;15.498;2022-07-01T02:57:58;25.80;;;16.20;;
61036;SDS011;57313;47.040;15.498;2022-07-01T03:00:25;24.10;;;15.35;;
61036;SDS011;57313;47.040;15.498;2022-07-01T03:02:53;24.65;;;14.50;;
61036;SDS011;57313;47.040;15.498;2022-07-01T03:05:22;21.58;;;13.77;;
61036;SDS011;57313;47.040;15.498;2022-07-01T03:07:50;25.83;;;15.63;;
61036;SDS011;57313;47.040;15.498;2022-07-01T03:10:18;22.27;;;15.02;;
61036;SDS011;57313;47.040;15.498;2022-07-01T03:12:45;24.23;;;15.35;;
61036;SDS011;57313;47.040;15.498;2022-07-01T03:15:13;21.88;;;14.75;;
61036;SDS011;57313;47.040;15.498;2022-07-01T03:17:42;24.50;;;15.15;;
61036;SDS011;57313;47.040;15.498;2022-07-01T03:20:12;21.52;;;13.98;;
61036;SDS011;57313;47.040;15.498;2022-07-01T03:22:44;21.25;;;14.80;;
61036;SDS011;57313;47.040;15.498;2022-07-01T03:25:12;23.77;;;14.52;;
61036;SDS011;57313;47.040;15.498;2022-07-01T03:27:40;26.42;;;14.73;;
61036;SDS011;57313;47.040;15.498;2022-07-01T03:30:08;28.65;;;15.32;;
61036;SDS011;57313;47.040;15.498;2022-07-01T03:32:35;24.13;;;14.80;;
61036;SDS011;57313;47.040;15.498;2022-07-01T03:35:03;24.27;;;15.35;;
61036;SDS011;57313;47.040;15.498;2022-07-01T03:37:31;19.45;;;14.20;;
61036;SDS011;57313;47.040;15.498;2022-07-01T03:40:03;21.58;;;14.45;;
61036;SDS011;57313;47.040;15.498;2022-07-01T03:42:31;18.95;;;13.93;;
61036;SDS011;57313;47.040;15.498;2022-07-01T03:44:58;22.85;;;16.27;;
61036;SDS011;57313;47.040;15.498;2022-07-01T03:47:25;23.52;;;14.40;;
61036;SDS011;57313;47.040;15.498;2022-07-01T03:49:52;21.58;;;15.32;;
61036;SDS011;57313;47.040;15.498;2022-07-01T03:52:20;21.98;;;14.45;;
61036;SDS011;57313;47.040;15.498;2022-07-01T03:54:47;22.77;;;15.05;;
61036;SDS011;57313;47.040;15.498;2022-07-01T03:57:15;21.25;;;15.40;;
61036;SDS011;57313;47.040;15.498;2022-07-01T03:59:42;20.90;;;14.88;;
61036;SDS011;57313;47.040;15.498;2022-07-01T04:02:10;21.55;;;14.50;;
61036;SDS011;57313;47.040;15.498;2022-07-01T04:04:37;19.55;;;14.65;;
61036;SDS011;57313;47.040;15.498;2022-07-01T04:07:04;23.05;;;15.57;;
61036;SDS011;57313;47.040;15.498;2022-07-01T04:09:32;23.67;;;16.02;;
61036;SDS011;57313;47.040;15.498;2022-07-01T04:12:00;21.67;;;15.98;;
61036;SDS011;57313;47.040;15.498;2022-07-01T04:14:28;21.13;;;14.15;;
61036;SDS011;57313;47.040;15.498;2022-07-01T04:16:56;24.42;;;16.98;;
61036;SDS011;57313;47.040;15.498;2022-07-01T04:19:24;25.50;;;15.70;;
61036;SDS011;57313;47.040;15.498;2022-07-01T04:21:51;25.40;;;17.02;;
61036;SDS011;57313;47.040;15.498;2022-07-01T04:24:19;23.80;;;16.30;;
61036;SDS011;57313;47.040;15.498;2022-07-01T04:26:46;23.85;;;15.93;;
61036;SDS011;57313;47.040;15.498;2022-07-01T04:29:13;22.20;;;15.73;;
61036;SDS011;57313;47.040;15.498;2022-07-01T04:31:42;25.38;;;16.42;;
61036;SDS011;57313;47.040;15.498;2022-07-01T04:34:10;27.20;;;16.60;;
61036;SDS011;57313;47.040;15.498;2022-07-01T04:36:37;23.65;;;16.23;;
61036;SDS011;57313;47.040;15.498;2022-07-01T04:39:05;24.42;;;17.15;;
61036;SDS011;57313;47.040;15.498;2022-07-01T04:41:33;23.38;;;16.90;;
61036;SDS011;57313;47.040;15.498;2022-07-01T04:44:00;24.65;;;17.02;;
61036;SDS011;57313;47.040;15.498;2022-07-01T04:46:27;24.67;;;18.27;;
61036;SDS011;57313;47.040;15.498;2022-07-01T04:48:56;24.98;;;16.75;;
61036;SDS011;57313;47.040;15.498;2022-07-01T04:51:23;26.83;;;16.98;;
61036;SDS011;57313;47.040;15.498;2022-07-01T04:53:51;28.15;;;17.10;;
61036;SDS011;57313;47.040;15.498;2022-07-01T04:56:18;31.30;;;17.48;;
61036;SDS011;57313;47.040;15.498;2022-07-01T04:58:45;24.98;;;17.05;;
61036;SDS011;57313;47.040;15.498;2022-07-01T05:01:12;28.10;;;17.73;;
61036;SDS011;57313;47.040;15.498;2022-07-01T05:03:40;26.50;;;16.65;;
61036;SDS011;57313;47.040;15.498;2022-07-01T05:06:09;29.95;;;17.52;;
61036;SDS011;57313;47.040;15.498;2022-07-01T05:08:36;31.23;;;17.25;;
61036;SDS011;57313;47.040;15.498;2022-07-01T05:11:03;27.13;;;17.58;;
61036;SDS011;57313;47.040;15.498;2022-07-01T05:13:30;27.95;;;18.08;;
61036;SDS011;57313;47.040;15.498;2022-07-01T05:15:58;28.92;;;17.63;;
61036;SDS011;57313;47.040;15.498;2022-07-01T05:18:25;28.17;;;18.27;;
61036;SDS011;57313;47.040;15.498;2022-07-01T05:20:52;28.35;;;18.27;;
61036;SDS011;57313;47.040;15.498;2022-07-01T05:23:22;26.27;;;16.83;;
61036;SDS011;57313;47.040;15.498;2022-07-01T05:25:49;27.65;;;17.13;;
61036;SDS011;57313;47.040;15.498;2022-07-01T05:28:16;24.17;;;17.58;;
61036;SDS011;57313;47.040;15.498;2022-07-01T05:30:44;29.50;;;18.00;;
61036;SDS011;57313;47.040;15.498;2022-07-01T05:33:12;27.15;;;17.85;;
61036;SDS011;57313;47.040;15.498;2022-07-01T05:35:40;26.73;;;17.67;;
61036;SDS011;57313;47.040;15.498;2022-07-01T05:38:08;25.83;;;17.27;;
61036;SDS011;57313;47.040;15.498;2022-07-01T05:40:37;24.98;;;16.98;;
61036;SDS011;57313;47.040;15.498;2022-07-01T05:43:05;26.30;;;17.50;;
61036;SDS011;57313;47.040;15.498;2022-07-01T05:45:32;24.75;;;17.58;;
61036;SDS011;57313;47.040;15.498;2022-07-01T05:47:59;30.42;;;17.50;;
61036;SDS011;57313;47.040;15.498;2022-07-01T05:50:27;31.50;;;18.05;;
61036;SDS011;57313;47.040;15.498;2022-07-01T05:52:54;29.40;;;16.85;;
61036;SDS011;57313;47.040;15.498;2022-07-01T05:55:21;30.77;;;16.83;;
61036;SDS011;57313;47.040;15.498;2022-07-01T05:57:50;25.85;;;15.95;;
61036;SDS011;57313;47.040;15.498;2022-07-01T06:00:19;27.83;;;16.88;;
61036;SDS011;57313;47.040;15.498;2022-07-01T06:02:46;23.58;;;16.48;;
61036;SDS011;57313;47.040;15.498;2022-07-01T06:05:14;27.80;;;16.48;;
61036;SDS011;57313;47.040;15.498;2022-07-01T06:07:41;26.98;;;16.45;;
61036;SDS011;57313;47.040;15.498;2022-07-01T06:10:09;24.38;;;16.40;;
61036;SDS011;57313;47.040;15.498;2022-07-01T06:12:37;23.40;;;15.75;;
61036;SDS011;57313;47.040;15.498;2022-07-01T06:15:07;27.23;;;16.08;;
61036;SDS011;57313;47.040;15.498;2022-07-01T06:17:37;23.50;;;14.65;;
61036;SDS011;57313;47.040;15.498;2022-07-01T06:20:06;23.75;;;15.07;;
61036;SDS011;57313;47.040;15.498;2022-07-01T06:22:34;25.67;;;16.05;;
61036;SDS011;57313;47.040;15.498;2022-07-01T06:25:02;24.85;;;15.82;;
61036;SDS011;57313;47.040;15.498;2022-07-01T06:27:29;25.30;;;15.73;;
61036;SDS011;57313;47.040;15.498;2022-07-01T06:29:57;27.75;;;15.40;;
61036;SDS011;57313;47.040;15.498;2022-07-01T06:32:26;23.30;;;15.25;;
61036;SDS011;57313;47.040;15.498;2022-07-01T06:34:54;25.70;;;15.40;;
61036;SDS011;57313;47.040;15.498;2022-07-01T06:37:21;27.02;;;15.90;;
61036;SDS011;57313;47.040;15.498;2022-07-01T06:39:49;25.15;;;15.90;;
61036;SDS011;57313;47.040;15.498;2022-07-01T06:42:16;24.80;;;14.68;;
61036;SDS011;57313;47.040;15.498;2022-07-01T06:44:44;23.10;;;15.18;;
61036;SDS011;57313;47.040;15.498;2022-07-01T06:47:12;25.33;;;14.27;;
61036;SDS011;57313;47.040;15.498;2022-07-01T06:49:41;27.08;;;15.35;;
61036;SDS011;57313;47.040;15.498;2022-07-01T06:52:08;23.33;;;14.30;;
61036;SDS011;57313;47.040;15.498;2022-07-01T06:54:35;26.65;;;15.68;;
61036;SDS011;57313;47.040;15.498;2022-07-01T06:57:04;24.42;;;14.90;;
61036;SDS011;57313;47.040;15.498;2022-07-01T06:59:32;24.65;;;14.38;;
61036;SDS011;57313;47.040;15.498;2022-07-01T07:01:59;29.88;;;15.30;;
61036;SDS011;57313;47.040;15.498;2022-07-01T07:04:27;23.95;;;14.35;;
61036;SDS011;57313;47.040;15.498;2022-07-01T07:07:16;23.13;;;13.88;;
61036;SDS011;57313;47.040;15.498;2022-07-01T07:09:43;27.13;;;15.38;;
61036;SDS011;57313;47.040;15.498;2022-07-01T07:12:10;23.15;;;14.60;;
61036;SDS011;57313;47.040;15.498;2022-07-01T07:14:37;23.48;;;14.82;;
61036;SDS011;57313;47.040;15.498;2022-07-01T07:17:05;23.52;;;15.45;;
61036;SDS011;57313;47.040;15.498;2022-07-01T07:19:32;25.17;;;14.90;;
61036;SDS011;57313;47.040;15.498;2022-07-01T07:22:00;22.00;;;14.75;;
61036;SDS011;57313;47.040;15.498;2022-07-01T07:24:28;20.17;;;13.00;;
61036;SDS011;57313;47.040;15.498;2022-07-01T07:26:56;23.92;;;13.40;;
61036;SDS011;57313;47.040;15.498;2022-07-01T07:29:23;23.25;;;12.00;;
61036;SDS011;57313;47.040;15.498;2022-07-01T07:31:50;20.80;;;12.00;;
61036;SDS011;57313;47.040;15.498;2022-07-01T07:34:17;19.67;;;12.57;;
61036;SDS011;57313;47.040;15.498;2022-07-01T07:36:44;21.80;;;12.20;;
61036;SDS011;57313;47.040;15.498;2022-07-01T07:39:11;18.35;;;11.98;;
61036;SDS011;57313;47.040;15.498;2022-07-01T07:41:40;25.73;;;12.20;;
61036;SDS011;57313;47.040;15.498;2022-07-01T07:44:08;23.02;;;11.70;;
61036;SDS011;57313;47.040;15.498;2022-07-01T07:46:35;20.10;;;11.98;;
61036;SDS011;57313;47.040;15.498;2022-07-01T07:49:02;23.65;;;12.57;;
61036;SDS011;57313;47.040;15.498;2022-07-01T07:51:29;25.67;;;11.73;;
61036;SDS011;57313;47.040;15.498;2022-07-01T07:53:56;23.83;;;11.38;;
61036;SDS011;57313;47.040;15.498;2022-07-01T07:56:23;19.95;;;11.80;;
61036;SDS011;57313;47.040;15.498;2022-07-01T07:58:52;23.50;;;12.27;;
61036;SDS011;57313;47.040;15.498;2022-07-01T08:01:19;19.23;;;11.95;;
61036;SDS011;57313;47.040;15.498;2022-07-01T08:03:47;17.33;;;11.10;;
61036;SDS011;57313;47.040;15.498;2022-07-01T08:06:14;21.10;;;12.23;;
61036;SDS011;57313;47.040;15.498;2022-07-01T08:08:41;17.48;;;11.82;;
61036;SDS011;57313;47.040;15.498;2022-07-01T08:11:08;21.33;;;10.90;;
61036;SDS011;57313;47.040;15.498;2022-07-01T08:13:36;20.55;;;11.88;;
61036;SDS011;57313;47.040;15.498;2022-07-01T08:16:05;20.67;;;12.07;;
61036;SDS011;57313;47.040;15.498;2022-07-01T08:18:32;29.83;;;12.25;;
61036;SDS011;57313;47.040;15.498;2022-07-01T08:20:59;21.13;;;11.73;;
61036;SDS011;57313;47.040;15.498;2022-07-01T08:23:26;20.08;;;11.85;;
61036;SDS011;57313;47.040;15.498;2022-07-01T08:25:54;19.70;;;12.23;;
61036;SDS011;57313;47.040;15.498;2022-07-01T08:28:21;25.00;;;11.77;;
61036;SDS011;57313;47.040;15.498;2022-07-01T08:30:48;18.58;;;11.57;;
61036;SDS011;57313;47.040;15.498;2022-07-01T08:33:16;20.17;;;11.95;;
61036;SDS011;57313;47.040;15.498;2022-07-01T08:35:43;19.65;;;12.50;;
61036;SDS011;57313;47.040;15.498;2022-07-01T08:38:11;16.45;;;10.57;;
61036;SDS011;57313;47.040;15.498;2022-07-01T08:40:38;19.65;;;10.88;;
61036;SDS011;57313;47.040;15.498;2022-07-01T08:43:05;18.40;;;11.23;;
61036;SDS011;57313;47.040;15.498;2022-07-01T08:45:34;14.73;;;9.75;;
61036;SDS011;57313;47.040;15.498;2022-07-01T08:48:03;18.20;;;9.95;;
61036;SDS011;57313;47.040;15.498;2022-07-01T08:50:33;18.67;;;10.98;;
61036;SDS011;57313;47.040;15.498;2022-07-01T08:53:02;21.85;;;11.63;;
61036;SDS011;57313;47.040;15.498;2022-07-01T08:55:30;21.83;;;11.23;;
61036;SDS011;57313;47.040;15.498;2022-07-01T08:57:58;25.67;;;10.65;;
61036;SDS011;57313;47.040;15.498;2022-07-01T09:00:31;20.80;;;10.20;;
61036;SDS011;57313;47.040;15.498;2022-07-01T09:02:59;20.27;;;10.63;;
61036;SDS011;57313;47.040;15.498;2022-07-01T09:05:28;19.67;;;10.77;;
61036;SDS011;57313;47.040;15.498;2022-07-01T09:07:58;17.48;;;10.73;;
61036;SDS011;57313;47.040;15.498;2022-07-01T09:10:27;16.80;;;10.90;;
61036;SDS011;57313;47.040;15.498;2022-07-01T09:12:55;17.20;;;10.90;;
61036;SDS011;57313;47.040;15.498;2022-07-01T09:15:23;17.85;;;10.55;;
61036;SDS011;57313;47.040;15.498;2022-07-01T09:17:54;18.42;;;9.98;;
61036;SDS011;57313;47.040;15.498;2022-07-01T09:20:23;20.98;;;9.55;;
61036;SDS011;57313;47.040;15.498;2022-07-01T09:25:36;16.95;;;9.90;;
61036;SDS011;57313;47.040;15.498;2022-07-01T09:28:13;16.17;;;8.93;;
61036;SDS011;57313;47.040;15.498;2022-07-01T09:30:42;14.68;;;9.38;;
61036;SDS011;57313;47.040;15.498;2022-07-01T09:33:12;21.65;;;8.98;;
61036;SDS011;57313;47.040;15.498;2022-07-01T09:35:42;17.17;;;8.85;;
61036;SDS011;57313;47.040;15.498;2022-07-01T09:38:12;15.43;;;8.73;;
61036;SDS011;57313;47.040;15.498;2022-07-01T09:40:59;25.52;;;9.70;;
61036;SDS011;57313;47.040;15.498;2022-07-01T09:43:28;21.35;;;8.43;;
61036;SDS011;57313;47.040;15.498;2022-07-01T09:45:58;14.68;;;8.15;;
61036;SDS011;57313;47.040;15.498;2022-07-01T09:48:27;16.88;;;8.65;;
61036;SDS011;57313;47.040;15.498;2022-07-01T09:51:10;15.23;;;9.00;;
61036;SDS011;57313;47.040;15.498;2022-07-01T09:53:42;19.13;;;8.30;;
61036;SDS011;57313;47.040;15.498;2022-07-01T09:56:10;14.77;;;8.45;;
61036;SDS011;57313;47.040;15.498;2022-07-01T09:58:38;16.90;;;8.57;;
61036;SDS011;57313;47.040;15.498;2022-07-01T10:01:05;17.85;;;9.95;;
61036;SDS011;57313;47.040;15.498;2022-07-01T10:03:34;15.98;;;8.50;;
61036;SDS011;57313;47.040;15.498;2022-07-01T10:06:08;15.02;;;8.75;;
61036;SDS011;57313;47.040;15.498;2022-07-01T10:09:10;17.05;;;8.50;;
61036;SDS011;57313;47.040;15.498;2022-07-01T10:14:49;15.63;;;8.73;;
61036;SDS011;57313;47.040;15.498;2022-07-01T10:20:07;15.90;;;8.32;;
61036;SDS011;57313;47.040;15.498;2022-07-01T10:22:37;18.50;;;8.57;;
61036;SDS011;57313;47.040;15.498;2022-07-01T10:28:21;13.50;;;8.10;;
61036;SDS011;57313;47.040;15.498;2022-07-01T10:30:58;16.35;;;8.00;;
61036;SDS011;57313;47.040;15.498;2022-07-01T10:33:34;17.58;;;6.90;;
61036;SDS011;57313;47.040;15.498;2022-07-01T10:36:13;14.65;;;6.65;;
61036;SDS011;57313;47.040;15.498;2022-07-01T10:41:38;12.32;;;6.63;;
61036;SDS011;57313;47.040;15.498;2022-07-01T10:44:08;17.95;;;6.65;;
61036;SDS011;57313;47.040;15.498;2022-07-01T10:46:43;15.73;;;5.97;;
61036;SDS011;57313;47.040;15.498;2022-07-01T10:49:11;15.15;;;5.90;;
61036;SDS011;57313;47.040;15.498;2022-07-01T10:51:44;13.45;;;5.57;;
61036;SDS011;57313;47.040;15.498;2022-07-01T10:54:13;15.27;;;5.13;;
61036;SDS011;57313;47.040;15.498;2022-07-01T10:56:40;13.48;;;5.70;;
61036;SDS011;57313;47.040;15.498;2022-07-01T10:59:15;15.70;;;5.35;;
61036;SDS011;57313;47.040;15.498;2022-07-01T11:01:44;18.25;;;5.15;;
61036;SDS011;57313;47.040;15.498;2022-07-01T11:04:11;14.75;;;5.40;;
61036;SDS011;57313;47.040;15.498;2022-07-01T11:06:38;13.63;;;5.70;;
61036;SDS011;57313;47.040;15.498;2022-07-01T11:09:05;11.90;;;5.18;;
61036;SDS011;57313;47.040;15.498;2022-07-01T11:11:33;14.02;;;4.50;;
61036;SDS011;57313;47.040;15.498;2022-07-01T11:14:00;13.30;;;4.70;;
61036;SDS011;57313;47.040;15.498;2022-07-01T11:16:29;14.25;;;4.70;;
61036;SDS011;57313;47.040;15.498;2022-07-01T11:18:56;10.38;;;5.07;;
61036;SDS011;57313;47.040;15.498;2022-07-01T11:21:23;12.25;;;4.80;;
61036;SDS011;57313;47.040;15.498;2022-07-01T11:23:54;15.68;;;5.05;;
61036;SDS011;57313;47.040;15.498;2022-07-01T11:26:22;16.27;;;5.00;;
61036;SDS011;57313;47.040;15.498;2022-07-01T11:28:50;15.05;;;5.00;;
61036;SDS011;57313;47.040;15.498;2022-07-01T11:31:29;13.20;;;5.85;;
61036;SDS011;57313;47.040;15.498;2022-07-01T11:33:58;12.38;;;5.18;;
61036;SDS011;57313;47.040;15.498;2022-07-01T11:36:25;15.07;;;5.53;;
61036;SDS011;57313;47.040;15.498;2022-07-01T11:38:53;15.70;;;6.38;;
61036;SDS011;57313;47.040;15.498;2022-07-01T11:41:22;13.65;;;5.35;;
61036;SDS011;57313;47.040;15.498;2022-07-01T11:43:51;15.25;;;4.95;;
61036;SDS011;57313;47.040;15.498;2022-07-01T11:46:20;13.60;;;4.82;;
61036;SDS011;57313;47.040;15.498;2022-07-01T11:48:49;14.43;;;5.00;;
61036;SDS011;57313;47.040;15.498;2022-07-01T11:51:18;11.93;;;5.18;;
61036;SDS011;57313;47.040;15.498;2022-07-01T11:53:47;12.30;;;5.20;;
61036;SDS011;57313;47.040;15.498;2022-07-01T11:56:16;11.57;;;4.65;;
61036;SDS011;57313;47.040;15.498;2022-07-01T11:58:45;9.77;;;4.30;;
61036;SDS011;57313;47.040;15.498;2022-07-01T12:01:21;10.95;;;4.38;;
61036;SDS011;57313;47.040;15.498;2022-07-01T12:03:55;14.98;;;4.50;;
61036;SDS011;57313;47.040;15.498;2022-07-01T12:06:24;17.40;;;5.05;;
61036;SDS011;57313;47.040;15.498;2022-07-01T12:08:53;12.63;;;4.50;;
61036;SDS011;57313;47.040;15.498;2022-07-01T12:11:22;12.88;;;4.30;;
61036;SDS011;57313;47.040;15.498;2022-07-01T12:13:51;15.75;;;4.80;;
61036;SDS011;57313;47.040;15.498;2022-07-01T12:16:20;11.63;;;4.60;;
61036;SDS011;57313;47.040;15.498;2022-07-01T12:18:52;10.27;;;4.97;;
61036;SDS011;57313;47.040;15.498;2022-07-01T12:21:22;10.95;;;4.97;;
61036;SDS011;57313;47.040;15.498;2022-07-01T12:24:02;20.33;;;5.57;;
61036;SDS011;57313;47.040;15.498;2022-07-01T12:26:34;13.88;;;4.93;;
61036;SDS011;57313;47.040;15.498;2022-07-01T12:29:01;13.88;;;4.88;;
61036;SDS011;57313;47.040;15.498;2022-07-01T12:31:29;12.00;;;4.25;;
61036;SDS011;57313;47.040;15.498;2022-07-01T12:33:56;16.00;;;4.50;;
61036;SDS011;57313;47.040;15.498;2022-07-01T12:36:24;15.23;;;4.88;;
61036;SDS011;57313;47.040;15.498;2022-07-01T12:39:02;19.05;;;4.75;;
61036;SDS011;57313;47.040;15.498;2022-07-01T12:41:32;14.60;;;4.63;;
61036;SDS011;57313;47.040;15.498;2022-07-01T12:44:05;15.90;;;4.70;;
61036;SDS011;57313;47.040;15.498;2022-07-01T12:46:33;12.95;;;4.32;;
61036;SDS011;57313;47.040;15.498;2022-07-01T12:49:00;9.95;;;4.03;;
61036;SDS011;57313;47.040;15.498;2022-07-01T12:51:32;12.65;;;4.40;;
61036;SDS011;57313;47.040;15.498;2022-07-01T12:53:59;12.93;;;4.35;;
61036;SDS011;57313;47.040;15.498;2022-07-01T12:56:27;13.00;;;4.53;;
61036;SDS011;57313;47.040;15.498;2022-07-01T12:58:55;12.10;;;4.57;;
61036;SDS011;57313;47.040;15.498;2022-07-01T13:01:23;13.60;;;4.45;;
61036;SDS011;57313;47.040;15.498;2022-07-01T13:03:51;12.73;;;4.20;;
61036;SDS011;57313;47.040;15.498;2022-07-01T13:06:20;16.17;;;4.30;;
61036;SDS011;57313;47.040;15.498;2022-07-01T13:08:49;14.15;;;4.85;;
61036;SDS011;57313;47.040;15.498;2022-07-01T13:11:16;13.10;;;3.92;;
61036;SDS011;57313;47.040;15.498;2022-07-01T13:13:44;13.93;;;4.30;;
61036;SDS011;57313;47.040;15.498;2022-07-01T13:16:11;14.13;;;4.03;;
61036;SDS011;57313;47.040;15.498;2022-07-01T13:18:38;13.00;;;3.97;;
61036;SDS011;57313;47.040;15.498;2022-07-01T13:21:06;11.73;;;3.88;;
61036;SDS011;57313;47.040;15.498;2022-07-01T13:23:33;12.55;;;4.18;;
61036;SDS011;57313;47.040;15.498;2022-07-01T13:26:05;12.25;;;4.00;;
61036;SDS011;57313;47.040;15.498;2022-07-01T13:28:32;13.27;;;3.80;;
61036;SDS011;57313;47.040;15.498;2022-07-01T13:30:59;16.10;;;4.32;;
61036;SDS011;57313;47.040;15.498;2022-07-01T13:33:26;10.73;;;3.70;;
61036;SDS011;57313;47.040;15.498;2022-07-01T13:35:53;13.02;;;3.88;;
61036;SDS011;57313;47.040;15.498;2022-07-01T13:38:21;12.20;;;4.20;;
61036;SDS011;57313;47.040;15.498;2022-07-01T13:40:48;13.40;;;3.45;;
61036;SDS011;57313;47.040;15.498;2022-07-01T13:43:16;10.23;;;3.63;;
61036;SDS011;57313;47.040;15.498;2022-07-01T13:45:43;16.17;;;3.88;;
61036;SDS011;57313;47.040;15.498;2022-07-01T13:48:10;11.32;;;4.40;;
61036;SDS011;57313;47.040;15.498;2022-07-01T13:50:38;12.02;;;4.40;;
61036;SDS011;57313;47.040;15.498;2022-07-01T13:53:05;11.30;;;3.97;;
61036;SDS011;57313;47.040;15.498;2022-07-01T13:55:32;11.32;;;3.63;;
61036;SDS011;57313;47.040;15.498;2022-07-01T13:57:59;13.35;;;4.20;;
61036;SDS011;57313;47.040;15.498;2022-07-01T14:00:28;12.00;;;3.83;;
61036;SDS011;57313;47.040;15.498;2022-07-01T14:02:55;15.82;;;4.40;;
61036;SDS011;57313;47.040;15.498;2022-07-01T14:05:22;12.68;;;4.50;;
61036;SDS011;57313;47.040;15.498;2022-07-01T14:07:50;12.70;;;4.30;;
61036;SDS011;57313;47.040;15.498;2022-07-01T14:10:17;11.63;;;4.18;;
61036;SDS011;57313;47.040;15.498;2022-07-01T14:12:44;14.60;;;3.85;;
61036;SDS011;57313;47.040;15.498;2022-07-01T14:15:11;10.95;;;4.00;;
61036;SDS011;57313;47.040;15.498;2022-07-01T14:17:41;12.00;;;3.72;;
61036;SDS011;57313;47.040;15.498;2022-07-01T14:20:08;13.13;;;3.90;;
61036;SDS011;57313;47.040;15.498;2022-07-01T14:22:36;9.48;;;3.65;;
61036;SDS011;57313;47.040;15.498;2022-07-01T14:25:04;13.60;;;3.70;;
61036;SDS011;57313;47.040;15.498;2022-07-01T14:27:32;12.15;;;3.60;;
61036;SDS011;57313;47.040;15.498;2022-07-01T14:29:59;15.40;;;3.33;;
61036;SDS011;57313;47.040;15.498;2022-07-01T14:32:26;12.25;;;2.97;;
61036;SDS011;57313;47.040;15.498;2022-07-01T14:34:55;14.57;;;3.65;;